Terminal Aerodrome Forecast
Issued by NWS

Home | Current Version | Previous Version | Text Only | Print | Product List | Glossary On
Versions: 1 2 3 4 5 6 7 8 9 10 11 12 13 14 15 16 17
000
FTUS43 KIND 241700
TAFHUF
TAF
KHUF 241720Z 2418/2518 15015G22KT P6SM FEW100 BKN200
     FM250100 14012KT P6SM OVC100
     FM250600 14012KT 4SM -SHRA VCTS BKN025CB
     FM250800 18012KT 3SM -SHRA VCTS OVC012CB
     FM251000 24013KT 4SM -SHRA VCTS OVC012CB
     FM251200 32015G29KT P6SM BKN025=

USA.gov is the U.S. government's official web portal to all federal, state and local government web resources and services.